sensor_id;sensor_type;location;lat;lon;timestamp;pressure;altitude;pressure_sealevel;temperature;humidity
70521;BME280;58442;52.716;23.560;2022-08-21T00:01:49;101161.00;;;18.98;72.76
70521;BME280;58442;52.716;23.560;2022-08-21T00:03:50;101155.48;;;18.98;72.73
70521;BME280;58442;52.716;23.560;2022-08-21T00:05:54;101154.70;;;18.98;72.64
70521;BME280;58442;52.716;23.560;2022-08-21T00:07:56;101157.48;;;18.94;72.66
70521;BME280;58442;52.716;23.560;2022-08-21T00:10:04;101157.85;;;18.93;72.71
70521;BME280;58442;52.716;23.560;2022-08-21T00:12:06;101165.34;;;18.89;72.86
70521;BME280;58442;52.716;23.560;2022-08-21T00:14:09;101160.20;;;18.87;72.88
70521;BME280;58442;52.716;23.560;2022-08-21T00:16:10;101161.01;;;18.84;72.92
70521;BME280;58442;52.716;23.560;2022-08-21T00:18:19;101153.92;;;18.83;72.88
70521;BME280;58442;52.716;23.560;2022-08-21T00:20:21;101165.34;;;18.81;72.95
70521;BME280;58442;52.716;23.560;2022-08-21T00:22:22;101159.84;;;18.81;72.90
70521;BME280;58442;52.716;23.560;2022-08-21T00:24:24;101156.66;;;18.79;72.91
70521;BME280;58442;52.716;23.560;2022-08-21T00:26:33;101157.85;;;18.78;72.94
70521;BME280;58442;52.716;23.560;2022-08-21T00:28:34;101162.57;;;18.78;72.96
70521;BME280;58442;52.716;23.560;2022-08-21T00:30:36;101158.24;;;18.77;72.95
70521;BME280;58442;52.716;23.560;2022-08-21T00:32:39;101155.90;;;18.75;72.92
70521;BME280;58442;52.716;23.560;2022-08-21T00:34:47;101163.74;;;18.73;72.98
70521;BME280;58442;52.716;23.560;2022-08-21T00:36:49;101159.81;;;18.71;73.08
70521;BME280;58442;52.716;23.560;2022-08-21T00:38:50;101168.09;;;18.67;73.18
70521;BME280;58442;52.716;23.560;2022-08-21T00:40:57;101155.84;;;18.65;73.23
70521;BME280;58442;52.716;23.560;2022-08-21T00:43:04;101159.39;;;18.62;73.29
70521;BME280;58442;52.716;23.560;2022-08-21T00:45:07;101164.48;;;18.59;73.34
70521;BME280;58442;52.716;23.560;2022-08-21T00:47:08;101162.13;;;18.58;73.35
70521;BME280;58442;52.716;23.560;2022-08-21T00:49:11;101165.27;;;18.56;73.35
70521;BME280;58442;52.716;23.560;2022-08-21T00:51:21;101159.39;;;18.54;73.41
70521;BME280;58442;52.716;23.560;2022-08-21T00:53:27;101163.32;;;18.53;73.44
70521;BME280;58442;52.716;23.560;2022-08-21T00:55:29;101164.48;;;18.52;73.45
70521;BME280;58442;52.716;23.560;2022-08-21T00:57:44;101162.91;;;18.51;73.47
70521;BME280;58442;52.716;23.560;2022-08-21T00:59:49;101157.41;;;18.51;73.47
70521;BME280;58442;52.716;23.560;2022-08-21T01:01:54;101146.00;;;18.49;73.47
70521;BME280;58442;52.716;23.560;2022-08-21T01:03:55;101155.04;;;18.50;73.53
70521;BME280;58442;52.716;23.560;2022-08-21T01:05:56;101152.29;;;18.50;73.51
70521;BME280;58442;52.716;23.560;2022-08-21T01:07:58;101159.37;;;18.47;73.56
70521;BME280;58442;52.716;23.560;2022-08-21T01:10:09;101152.30;;;18.46;73.61
70521;BME280;58442;52.716;23.560;2022-08-21T01:12:11;101152.30;;;18.46;73.58
70521;BME280;58442;52.716;23.560;2022-08-21T01:14:14;101152.30;;;18.46;73.58
70521;BME280;58442;52.716;23.560;2022-08-21T01:16:19;101154.24;;;18.46;73.57
70521;BME280;58442;52.716;23.560;2022-08-21T01:18:23;101149.55;;;18.46;73.57
70521;BME280;58442;52.716;23.560;2022-08-21T01:20:26;101150.70;;;18.45;73.55
70521;BME280;58442;52.716;23.560;2022-08-21T01:22:27;101151.88;;;18.44;73.52
70521;BME280;58442;52.716;23.560;2022-08-21T01:24:28;101149.52;;;18.43;73.53
70521;BME280;58442;52.716;23.560;2022-08-21T01:26:38;101149.92;;;18.41;73.61
70521;BME280;58442;52.716;23.560;2022-08-21T01:28:48;101151.10;;;18.40;73.61
70521;BME280;58442;52.716;23.560;2022-08-21T01:30:51;101150.69;;;18.38;73.64
70521;BME280;58442;52.716;23.560;2022-08-21T01:32:54;101145.59;;;18.37;73.71
70521;BME280;58442;52.716;23.560;2022-08-21T01:34:55;101150.30;;;18.36;73.75
70521;BME280;58442;52.716;23.560;2022-08-21T01:36:56;101152.27;;;18.36;73.75
70521;BME280;58442;52.716;23.560;2022-08-21T01:38:58;101143.63;;;18.34;73.70
70521;BME280;58442;52.716;23.560;2022-08-21T01:40:59;101146.75;;;18.32;73.69
70521;BME280;58442;52.716;23.560;2022-08-21T01:43:10;101140.86;;;18.30;73.70
70521;BME280;58442;52.716;23.560;2022-08-21T01:45:13;101141.64;;;18.27;73.76
70521;BME280;58442;52.716;23.560;2022-08-21T01:47:15;101142.83;;;18.26;73.75
70521;BME280;58442;52.716;23.560;2022-08-21T01:49:17;101139.65;;;18.24;73.79
70521;BME280;58442;52.716;23.560;2022-08-21T01:51:24;101139.27;;;18.22;73.81
70521;BME280;58442;52.716;23.560;2022-08-21T01:53:26;101138.48;;;18.21;73.84
70521;BME280;58442;52.716;23.560;2022-08-21T01:55:27;101144.38;;;18.20;73.88
70521;BME280;58442;52.716;23.560;2022-08-21T01:57:29;101147.13;;;18.20;73.86
70521;BME280;58442;52.716;23.560;2022-08-21T01:59:39;101142.00;;;18.18;73.85
70521;BME280;58442;52.716;23.560;2022-08-21T02:01:41;101140.03;;;18.15;73.89
70521;BME280;58442;52.716;23.560;2022-08-21T02:03:43;101145.14;;;18.13;73.95
70521;BME280;58442;52.716;23.560;2022-08-21T02:05:44;101144.34;;;18.09;74.02
70521;BME280;58442;52.716;23.560;2022-08-21T02:07:54;101141.59;;;18.06;74.21
70521;BME280;58442;52.716;23.560;2022-08-21T02:09:56;101139.98;;;18.04;74.25
70521;BME280;58442;52.716;23.560;2022-08-21T02:11:57;101148.24;;;18.04;74.30
70521;BME280;58442;52.716;23.560;2022-08-21T02:13:59;101150.21;;;18.04;74.32
70521;BME280;58442;52.716;23.560;2022-08-21T02:16:09;101154.92;;;18.03;74.39
70521;BME280;58442;52.716;23.560;2022-08-21T02:18:10;101145.89;;;18.03;74.48
70521;BME280;58442;52.716;23.560;2022-08-21T02:20:19;101145.10;;;18.02;74.56
70521;BME280;58442;52.716;23.560;2022-08-21T02:22:20;101141.95;;;18.00;74.72
70521;BME280;58442;52.716;23.560;2022-08-21T02:24:23;101129.00;;;18.01;74.80
70521;BME280;58442;52.716;23.560;2022-08-21T02:26:25;101135.28;;;18.01;74.89
70521;BME280;58442;52.716;23.560;2022-08-21T02:28:27;101135.66;;;18.03;74.92
70521;BME280;58442;52.716;23.560;2022-08-21T02:30:34;101131.73;;;18.04;74.95
70521;BME280;58442;52.716;23.560;2022-08-21T02:32:38;101145.49;;;18.04;75.08
70521;BME280;58442;52.716;23.560;2022-08-21T02:34:40;101136.45;;;18.04;75.25
70521;BME280;58442;52.716;23.560;2022-08-21T02:36:41;101138.05;;;18.05;75.32
70521;BME280;58442;52.716;23.560;2022-08-21T02:38:43;101133.73;;;18.08;75.39
70521;BME280;58442;52.716;23.560;2022-08-21T02:40:54;101134.12;;;18.10;75.44
70521;BME280;58442;52.716;23.560;2022-08-21T02:42:55;101135.69;;;18.11;75.54
70521;BME280;58442;52.716;23.560;2022-08-21T02:44:56;101134.14;;;18.13;75.59
70521;BME280;58442;52.716;23.560;2022-08-21T02:46:57;101138.85;;;18.16;75.57
70521;BME280;58442;52.716;23.560;2022-08-21T02:49:07;101136.49;;;18.18;75.60
70521;BME280;58442;52.716;23.560;2022-08-21T02:51:12;101136.91;;;18.20;75.67
70521;BME280;58442;52.716;23.560;2022-08-21T02:53:16;101141.23;;;18.25;75.65
70521;BME280;58442;52.716;23.560;2022-08-21T02:55:18;101141.25;;;18.28;75.60
70521;BME280;58442;52.716;23.560;2022-08-21T02:57:22;101136.53;;;18.29;75.59
70521;BME280;58442;52.716;23.560;2022-08-21T02:59:23;101139.66;;;18.31;75.66
70521;BME280;58442;52.716;23.560;2022-08-21T03:01:24;101139.30;;;18.33;75.69
70521;BME280;58442;52.716;23.560;2022-08-21T03:03:28;101133.41;;;18.34;75.67
70521;BME280;58442;52.716;23.560;2022-08-21T03:05:37;101126.31;;;18.37;75.68
70521;BME280;58442;52.716;23.560;2022-08-21T03:07:38;101135.77;;;18.39;75.65
70521;BME280;58442;52.716;23.560;2022-08-21T03:09:40;101126.34;;;18.40;75.63
70521;BME280;58442;52.716;23.560;2022-08-21T03:11:41;101119.24;;;18.43;75.59
70521;BME280;58442;52.716;23.560;2022-08-21T03:13:55;101118.84;;;18.44;75.56
70521;BME280;58442;52.716;23.560;2022-08-21T03:15:56;101118.07;;;18.44;75.66
70521;BME280;58442;52.716;23.560;2022-08-21T03:17:58;101131.43;;;18.45;75.71
70521;BME280;58442;52.716;23.560;2022-08-21T03:19:59;101123.17;;;18.45;75.73
70521;BME280;58442;52.716;23.560;2022-08-21T03:22:06;101121.63;;;18.48;75.71
70521;BME280;58442;52.716;23.560;2022-08-21T03:24:08;101123.98;;;18.49;75.75
70521;BME280;58442;52.716;23.560;2022-08-21T03:26:09;101128.30;;;18.50;75.79
70521;BME280;58442;52.716;23.560;2022-08-21T03:28:20;101136.95;;;18.52;75.80
70521;BME280;58442;52.716;23.560;2022-08-21T03:30:22;101133.42;;;18.55;75.74
70521;BME280;58442;52.716;23.560;2022-08-21T03:32:23;101127.13;;;18.58;75.78
70521;BME280;58442;52.716;23.560;2022-08-21T03:34:24;101142.88;;;18.62;75.76
70521;BME280;58442;52.716;23.560;2022-08-21T03:36:25;101139.33;;;18.65;75.72
70521;BME280;58442;52.716;23.560;2022-08-21T03:38:37;101142.52;;;18.67;75.71
70521;BME280;58442;52.716;23.560;2022-08-21T03:40:38;101134.65;;;18.69;75.73
70521;BME280;58442;52.716;23.560;2022-08-21T03:42:39;101137.00;;;18.70;75.73
70521;BME280;58442;52.716;23.560;2022-08-21T03:44:40;101130.31;;;18.71;75.75
70521;BME280;58442;52.716;23.560;2022-08-21T03:46:50;101131.51;;;18.74;75.77
70521;BME280;58442;52.716;23.560;2022-08-21T03:48:52;101132.30;;;18.74;75.74
70521;BME280;58442;52.716;23.560;2022-08-21T03:50:53;101130.33;;;18.75;75.79
70521;BME280;58442;52.716;23.560;2022-08-21T03:52:55;101132.68;;;18.76;75.79
70521;BME280;58442;52.716;23.560;2022-08-21T03:55:06;101133.47;;;18.77;75.81
70521;BME280;58442;52.716;23.560;2022-08-21T03:57:07;101131.89;;;18.76;75.91
70521;BME280;58442;52.716;23.560;2022-08-21T03:59:09;101133.47;;;18.77;75.96
70521;BME280;58442;52.716;23.560;2022-08-21T04:01:11;101136.60;;;18.79;75.93
70521;BME280;58442;52.716;23.560;2022-08-21T04:03:20;101139.77;;;18.81;75.96
70521;BME280;58442;52.716;23.560;2022-08-21T04:05:23;101140.16;;;18.83;75.97
70521;BME280;58442;52.716;23.560;2022-08-21T04:07:27;101130.72;;;18.88;75.90
70521;BME280;58442;52.716;23.560;2022-08-21T04:09:29;101133.46;;;18.91;75.82
70521;BME280;58442;52.716;23.560;2022-08-21T04:11:35;101127.16;;;18.94;75.74
70521;BME280;58442;52.716;23.560;2022-08-21T04:13:38;101119.30;;;18.96;75.73
70521;BME280;58442;52.716;23.560;2022-08-21T04:15:41;101129.92;;;18.98;75.76
70521;BME280;58442;52.716;23.560;2022-08-21T04:17:43;101126.38;;;18.97;75.82
70521;BME280;58442;52.716;23.560;2022-08-21T04:19:50;101121.25;;;18.99;75.83
70521;BME280;58442;52.716;23.560;2022-08-21T04:21:51;101127.95;;;19.02;75.88
70521;BME280;58442;52.716;23.560;2022-08-21T04:23:54;101131.09;;;19.04;75.87
70521;BME280;58442;52.716;23.560;2022-08-21T04:25:56;101123.99;;;19.06;75.79
70521;BME280;58442;52.716;23.560;2022-08-21T04:28:04;101131.48;;;19.09;75.76
70521;BME280;58442;52.716;23.560;2022-08-21T04:30:06;101122.41;;;19.12;75.74
70521;BME280;58442;52.716;23.560;2022-08-21T04:32:09;101122.42;;;19.16;75.68
70521;BME280;58442;52.716;23.560;2022-08-21T04:34:10;101125.16;;;19.20;75.63
70521;BME280;58442;52.716;23.560;2022-08-21T04:36:19;101114.93;;;19.24;75.57
70521;BME280;58442;52.716;23.560;2022-08-21T04:38:21;101112.93;;;19.28;75.51
70521;BME280;58442;52.716;23.560;2022-08-21T04:40:24;101120.82;;;19.29;75.48
70521;BME280;58442;52.716;23.560;2022-08-21T04:42:27;101116.47;;;19.32;75.45
70521;BME280;58442;52.716;23.560;2022-08-21T04:44:33;101112.91;;;19.35;75.49
70521;BME280;58442;52.716;23.560;2022-08-21T04:46:35;101110.56;;;19.37;75.52
70521;BME280;58442;52.716;23.560;2022-08-21T04:48:36;101109.75;;;19.40;75.44
70521;BME280;58442;52.716;23.560;2022-08-21T04:52:49;101119.21;;;19.43;75.40
70521;BME280;58442;52.716;23.560;2022-08-21T04:54:51;101119.21;;;19.43;75.40
70521;BME280;58442;52.716;23.560;2022-08-21T04:56:56;101117.24;;;19.43;75.44
70521;BME280;58442;52.716;23.560;2022-08-21T04:59:03;101119.18;;;19.46;75.40
70521;BME280;58442;52.716;23.560;2022-08-21T05:01:11;101115.64;;;19.49;75.37
70521;BME280;58442;52.716;23.560;2022-08-21T05:03:24;101121.16;;;19.49;75.29
70521;BME280;58442;52.716;23.560;2022-08-21T05:05:28;101119.98;;;19.50;75.29
70521;BME280;58442;52.716;23.560;2022-08-21T05:07:31;101122.33;;;19.52;75.24
70521;BME280;58442;52.716;23.560;2022-08-21T05:09:33;101123.48;;;19.54;75.19
70521;BME280;58442;52.716;23.560;2022-08-21T05:11:39;101124.68;;;19.57;75.09
70521;BME280;58442;52.716;23.560;2022-08-21T05:13:42;101121.92;;;19.57;75.09
70521;BME280;58442;52.716;23.560;2022-08-21T05:15:50;101121.92;;;19.57;75.07
70521;BME280;58442;52.716;23.560;2022-08-21T05:17:51;101124.30;;;19.58;75.06
70521;BME280;58442;52.716;23.560;2022-08-21T05:19:54;101122.70;;;19.61;74.98
70521;BME280;58442;52.716;23.560;2022-08-21T05:21:56;101128.63;;;19.59;75.02
70521;BME280;58442;52.716;23.560;2022-08-21T05:23:58;101129.79;;;19.55;75.11
70521;BME280;58442;52.716;23.560;2022-08-21T05:26:05;101131.38;;;19.52;75.20
70521;BME280;58442;52.716;23.560;2022-08-21T05:28:10;101130.99;;;19.50;75.24
70521;BME280;58442;52.716;23.560;2022-08-21T05:30:11;101135.70;;;19.53;75.21
70521;BME280;58442;52.716;23.560;2022-08-21T05:32:13;101136.49;;;19.54;75.15
70521;BME280;58442;52.716;23.560;2022-08-21T05:34:18;101144.35;;;19.55;75.12
70521;BME280;58442;52.716;23.560;2022-08-21T05:36:23;101136.90;;;19.56;75.13
70521;BME280;58442;52.716;23.560;2022-08-21T05:38:25;101145.18;;;19.59;75.06
70521;BME280;58442;52.716;23.560;2022-08-21T05:40:29;101143.57;;;19.62;74.99
70521;BME280;58442;52.716;23.560;2022-08-21T05:42:30;101143.20;;;19.63;74.90
70521;BME280;58442;52.716;23.560;2022-08-21T05:44:38;101150.66;;;19.66;74.82
70521;BME280;58442;52.716;23.560;2022-08-21T05:46:39;101142.40;;;19.70;74.73
70521;BME280;58442;52.716;23.560;2022-08-21T05:48:40;101141.17;;;19.75;74.68
70521;BME280;58442;52.716;23.560;2022-08-21T05:50:42;101139.98;;;19.79;74.65
70521;BME280;58442;52.716;23.560;2022-08-21T05:52:52;101136.00;;;19.87;74.57
70521;BME280;58442;52.716;23.560;2022-08-21T05:54:54;101131.64;;;19.93;74.52
70521;BME280;58442;52.716;23.560;2022-08-21T05:56:55;101135.55;;;20.00;74.40
70521;BME280;58442;52.716;23.560;2022-08-21T05:58:56;101128.43;;;20.02;74.30
70521;BME280;58442;52.716;23.560;2022-08-21T06:01:07;101127.24;;;20.03;74.32
70521;BME280;58442;52.716;23.560;2022-08-21T06:03:17;101127.64;;;20.05;74.30
70521;BME280;58442;52.716;23.560;2022-08-21T06:05:19;101119.74;;;20.07;74.16
70521;BME280;58442;52.716;23.560;2022-08-21T06:07:20;101116.61;;;20.05;74.14
70521;BME280;58442;52.716;23.560;2022-08-21T06:09:23;101117.39;;;20.06;74.15
70521;BME280;58442;52.716;23.560;2022-08-21T06:11:24;101116.20;;;20.07;74.09
70521;BME280;58442;52.716;23.560;2022-08-21T06:13:26;101110.27;;;20.08;74.02
70521;BME280;58442;52.716;23.560;2022-08-21T06:15:28;101111.83;;;20.13;73.92
70521;BME280;58442;52.716;23.560;2022-08-21T06:17:38;101116.53;;;20.16;73.87
70521;BME280;58442;52.716;23.560;2022-08-21T06:19:39;101114.13;;;20.21;73.79
70521;BME280;58442;52.716;23.560;2022-08-21T06:21:40;101122.74;;;20.31;73.66
70521;BME280;58442;52.716;23.560;2022-08-21T06:23:42;101127.05;;;20.39;73.58
70521;BME280;58442;52.716;23.560;2022-08-21T06:25:52;101125.84;;;20.47;73.48
70521;BME280;58442;52.716;23.560;2022-08-21T06:28:05;101124.22;;;20.53;73.41
70521;BME280;58442;52.716;23.560;2022-08-21T06:30:08;101119.84;;;20.59;73.24
70521;BME280;58442;52.716;23.560;2022-08-21T06:32:11;101119.77;;;20.66;73.09
70521;BME280;58442;52.716;23.560;2022-08-21T06:34:14;101116.55;;;20.71;72.92
70521;BME280;58442;52.716;23.560;2022-08-21T06:36:16;101114.56;;;20.75;72.87
70521;BME280;58442;52.716;23.560;2022-08-21T06:38:17;101113.30;;;20.84;72.76
70521;BME280;58442;52.716;23.560;2022-08-21T06:40:19;101112.45;;;20.90;72.63
70521;BME280;58442;52.716;23.560;2022-08-21T06:42:26;101108.47;;;20.95;72.54
70521;BME280;58442;52.716;23.560;2022-08-21T06:44:30;101104.08;;;21.01;72.44
70521;BME280;58442;52.716;23.560;2022-08-21T06:46:32;101110.34;;;21.05;72.30
70521;BME280;58442;52.716;23.560;2022-08-21T06:48:34;101107.49;;;21.12;72.15
70521;BME280;58442;52.716;23.560;2022-08-21T06:50:40;101107.84;;;21.18;72.05
70521;BME280;58442;52.716;23.560;2022-08-21T06:52:42;101106.98;;;21.24;71.93
70521;BME280;58442;52.716;23.560;2022-08-21T06:54:43;101096.72;;;21.28;71.90
70521;BME280;58442;52.716;23.560;2022-08-21T06:56:44;101101.38;;;21.35;71.76
70521;BME280;58442;52.716;23.560;2022-08-21T06:58:55;101096.16;;;21.41;71.60
70521;BME280;58442;52.716;23.560;2022-08-21T07:00:56;101094.14;;;21.45;71.48
70521;BME280;58442;52.716;23.560;2022-08-21T07:02:58;101095.69;;;21.49;71.38
70521;BME280;58442;52.716;23.560;2022-08-21T07:04:59;101094.81;;;21.56;71.24
70521;BME280;58442;52.716;23.560;2022-08-21T07:07:10;101091.57;;;21.61;71.15
70521;BME280;58442;52.716;23.560;2022-08-21T07:11:30;101100.63;;;21.65;70.98
70521;BME280;58442;52.716;23.560;2022-08-21T07:13:32;101088.35;;;21.66;70.90
70521;BME280;58442;52.716;23.560;2022-08-21T07:15:34;101095.08;;;21.65;70.93
70521;BME280;58442;52.716;23.560;2022-08-21T07:17:35;101087.63;;;21.62;70.94
70521;BME280;58442;52.716;23.560;2022-08-21T07:19:36;101095.53;;;21.60;70.96
70521;BME280;58442;52.716;23.560;2022-08-21T07:21:37;101094.74;;;21.60;70.91
70521;BME280;58442;52.716;23.560;2022-08-21T07:23:50;101089.22;;;21.60;70.89
70521;BME280;58442;52.716;23.560;2022-08-21T07:25:52;101087.63;;;21.62;70.79
70521;BME280;58442;52.716;23.560;2022-08-21T07:27:53;101088.35;;;21.66;70.78
70521;BME280;58442;52.716;23.560;2022-08-21T07:29:54;101084.38;;;21.67;70.74
70521;BME280;58442;52.716;23.560;2022-08-21T07:32:04;101089.46;;;21.72;70.57
70521;BME280;58442;52.716;23.560;2022-08-21T07:34:05;101087.48;;;21.73;70.54
70521;BME280;58442;52.716;23.560;2022-08-21T07:36:07;101077.19;;;21.73;70.48
70521;BME280;58442;52.716;23.560;2022-08-21T07:38:09;101083.50;;;21.74;70.42
70521;BME280;58442;52.716;23.560;2022-08-21T07:40:18;101088.62;;;21.75;70.37
70521;BME280;58442;52.716;23.560;2022-08-21T07:42:19;101086.66;;;21.76;70.30
70521;BME280;58442;52.716;23.560;2022-08-21T07:44:21;101088.62;;;21.75;70.28
70521;BME280;58442;52.716;23.560;2022-08-21T07:46:22;101081.48;;;21.78;70.24
70521;BME280;58442;52.716;23.560;2022-08-21T07:48:33;101089.33;;;21.83;70.14
70521;BME280;58442;52.716;23.560;2022-08-21T07:50:34;101085.30;;;21.88;70.00
70521;BME280;58442;52.716;23.560;2022-08-21T07:52:35;101084.84;;;21.93;69.82
70521;BME280;58442;52.716;23.560;2022-08-21T07:54:37;101081.22;;;21.96;69.78
70521;BME280;58442;52.716;23.560;2022-08-21T07:56:47;101077.99;;;22.01;69.71
70521;BME280;58442;52.716;23.560;2022-08-21T07:58:49;101075.97;;;22.05;69.58
70521;BME280;58442;52.716;23.560;2022-08-21T08:00:50;101078.31;;;22.06;69.63
70521;BME280;58442;52.716;23.560;2022-08-21T08:02:52;101083.84;;;22.10;69.62
70521;BME280;58442;52.716;23.560;2022-08-21T08:05:08;101078.23;;;22.14;69.65
70521;BME280;58442;52.716;23.560;2022-08-21T08:07:10;101085.34;;;22.15;69.63
70521;BME280;58442;52.716;23.560;2022-08-21T08:09:11;101084.55;;;22.14;69.81
70521;BME280;58442;52.716;23.560;2022-08-21T08:11:13;101084.13;;;22.16;69.86
70521;BME280;58442;52.716;23.560;2022-08-21T08:13:17;101086.12;;;22.15;69.84
70521;BME280;58442;52.716;23.560;2022-08-21T08:15:24;101085.40;;;22.11;69.97
70521;BME280;58442;52.716;23.560;2022-08-21T08:17:26;101084.63;;;22.10;70.04
70521;BME280;58442;52.716;23.560;2022-08-21T08:19:28;101092.51;;;22.12;69.98
70521;BME280;58442;52.716;23.560;2022-08-21T08:21:31;101084.20;;;22.12;69.92
70521;BME280;58442;52.716;23.560;2022-08-21T08:23:35;101071.96;;;22.09;69.95
70521;BME280;58442;52.716;23.560;2022-08-21T08:25:36;101078.70;;;22.08;69.91
70521;BME280;58442;52.716;23.560;2022-08-21T08:27:37;101085.84;;;22.06;69.92
70521;BME280;58442;52.716;23.560;2022-08-21T08:29:47;101075.97;;;22.05;69.90
70521;BME280;58442;52.716;23.560;2022-08-21T08:31:48;101087.86;;;22.02;69.91
70521;BME280;58442;52.716;23.560;2022-08-21T08:33:49;101085.59;;;21.97;70.06
70521;BME280;58442;52.716;23.560;2022-08-21T08:35:51;101084.84;;;21.93;70.24
70521;BME280;58442;52.716;23.560;2022-08-21T08:38:01;101083.20;;;21.95;70.29
70521;BME280;58442;52.716;23.560;2022-08-21T08:40:03;101075.23;;;22.01;70.29
70521;BME280;58442;52.716;23.560;2022-08-21T08:42:30;101073.20;;;22.05;70.25
70521;BME280;58442;52.716;23.560;2022-08-21T08:44:15;101073.20;;;22.05;70.31
70521;BME280;58442;52.716;23.560;2022-08-21T08:46:21;101076.33;;;22.07;70.30
70521;BME280;58442;52.716;23.560;2022-08-21T08:48:40;101073.55;;;22.10;70.13
70521;BME280;58442;52.716;23.560;2022-08-21T08:50:45;101074.26;;;22.15;70.00
70521;BME280;58442;52.716;23.560;2022-08-21T08:52:54;101071.91;;;22.13;69.97
70521;BME280;58442;52.716;23.560;2022-08-21T08:55:06;101075.13;;;22.08;70.07
70521;BME280;58442;52.716;23.560;2022-08-21T08:57:15;101072.45;;;22.01;70.30
70521;BME280;58442;52.716;23.560;2022-08-21T08:59:36;101076.79;;;22.02;70.29
70521;BME280;58442;52.716;23.560;2022-08-21T09:01:37;101070.05;;;22.03;70.21
70521;BME280;58442;52.716;23.560;2022-08-21T09:03:39;101068.48;;;22.02;70.20
70521;BME280;58442;52.716;23.560;2022-08-21T09:05:51;101069.27;;;22.02;70.11
70521;BME280;58442;52.716;23.560;2022-08-21T09:12:33;101066.50;;;22.02;70.19
70521;BME280;58442;52.716;23.560;2022-08-21T09:17:24;101066.04;;;22.07;70.16
70521;BME280;58442;52.716;23.560;2022-08-21T09:28:59;101063.86;;;22.22;70.05
70521;BME280;58442;52.716;23.560;2022-08-21T09:31:08;101054.30;;;22.27;69.93
70521;BME280;58442;52.716;23.560;2022-08-21T09:33:11;101065.27;;;22.34;69.72
70521;BME280;58442;52.716;23.560;2022-08-21T09:35:18;101059.61;;;22.41;69.52
70521;BME280;58442;52.716;23.560;2022-08-21T09:37:23;101061.13;;;22.46;69.37
70521;BME280;58442;52.716;23.560;2022-08-21T09:39:39;101057.15;;;22.47;69.36
70521;BME280;58442;52.716;23.560;2022-08-21T09:41:41;101062.69;;;22.47;69.53
70521;BME280;58442;52.716;23.560;2022-08-21T09:43:52;101060.27;;;22.49;69.51
70521;BME280;58442;52.716;23.560;2022-08-21T09:48:38;101064.13;;;22.55;69.60
70521;BME280;58442;52.716;23.560;2022-08-21T09:50:22;101055.34;;;22.60;69.48
70521;BME280;58442;52.716;23.560;2022-08-21T09:52:32;101055.23;;;22.67;69.55
70521;BME280;58442;52.716;23.560;2022-08-21T09:54:37;101051.97;;;22.72;69.41
70521;BME280;58442;52.716;23.560;2022-08-21T09:59:13;101048.99;;;22.83;69.32
70521;BME280;58442;52.716;23.560;2022-08-21T10:01:22;101051.74;;;22.86;69.32
70521;BME280;58442;52.716;23.560;2022-08-21T10:03:23;101046.12;;;22.90;69.25
70521;BME280;58442;52.716;23.560;2022-08-21T10:05:29;101044.85;;;22.95;69.18
70521;BME280;58442;52.716;23.560;2022-08-21T10:07:32;101034.41;;;23.02;69.02
70521;BME280;58442;52.716;23.560;2022-08-21T10:09:33;101041.66;;;23.16;68.82
70521;BME280;58442;52.716;23.560;2022-08-21T10:11:35;101030.77;;;23.25;68.61
70521;BME280;58442;52.716;23.560;2022-08-21T10:18:42;101043.79;;;23.48;67.83
70521;BME280;58442;52.716;23.560;2022-08-21T10:25:35;101043.86;;;23.64;67.24
70521;BME280;58442;52.716;23.560;2022-08-21T10:27:50;101042.77;;;23.78;66.92
70521;BME280;58442;52.716;23.560;2022-08-21T10:36:40;101038.14;;;24.24;66.05
70521;BME280;58442;52.716;23.560;2022-08-21T10:39:34;101045.08;;;24.32;65.97
70521;BME280;58442;52.716;23.560;2022-08-21T10:45:56;101039.79;;;24.54;65.17
70521;BME280;58442;52.716;23.560;2022-08-21T10:48:06;101042.67;;;24.50;65.07
70521;BME280;58442;52.716;23.560;2022-08-21T10:50:25;101043.52;;;24.47;64.97
70521;BME280;58442;52.716;23.560;2022-08-21T10:56:49;101039.10;;;24.34;64.95
70521;BME280;58442;52.716;23.560;2022-08-21T10:59:16;101039.02;;;24.37;64.82
70521;BME280;58442;52.716;23.560;2022-08-21T11:01:15;101028.78;;;24.50;64.49
70521;BME280;58442;52.716;23.560;2022-08-21T11:03:25;101031.85;;;24.69;64.16
70521;BME280;58442;52.716;23.560;2022-08-21T11:05:40;101025.91;;;24.83;63.92
70521;BME280;58442;52.716;23.560;2022-08-21T11:07:53;101030.95;;;24.88;63.81
70521;BME280;58442;52.716;23.560;2022-08-21T11:09:58;101020.07;;;24.94;63.65
70521;BME280;58442;52.716;23.560;2022-08-21T11:12:18;101019.96;;;24.97;63.45
70521;BME280;58442;52.716;23.560;2022-08-21T11:14:47;101016.31;;;25.00;63.25
70521;BME280;58442;52.716;23.560;2022-08-21T11:16:49;101017.81;;;25.05;63.04
70521;BME280;58442;52.716;23.560;2022-08-21T11:23:31;101018.61;;;25.18;62.75
70521;BME280;58442;52.716;23.560;2022-08-21T11:25:38;101014.41;;;25.26;62.47
70521;BME280;58442;52.716;23.560;2022-08-21T11:27:51;101007.32;;;25.51;61.86
70521;BME280;58442;52.716;23.560;2022-08-21T11:29:57;101007.55;;;25.56;61.64
70521;BME280;58442;52.716;23.560;2022-08-21T11:34:39;101013.31;;;25.36;62.00
70521;BME280;58442;52.716;23.560;2022-08-21T11:36:59;101020.56;;;25.34;61.92
70521;BME280;58442;52.716;23.560;2022-08-21T11:39:22;101012.86;;;25.38;61.72
70521;BME280;58442;52.716;23.560;2022-08-21T11:41:39;101005.98;;;25.43;61.59
70521;BME280;58442;52.716;23.560;2022-08-21T11:45:55;101006.73;;;25.30;61.88